Decoded Metar for KVLD (VALDOSTA REGIONA in GA, USA) (IATA:VLD) | Meteo·Mobile Aviation Weather
aviador You're here:

KVLD Decoded Metar

VALDOSTA REGIONA in GA, USA
Report Time2018-09-21 11:53:00
UTC Time2018-09-21 12:08:26
Flight Rules vfr VFR
Wind040° at 04 kt
W.Decomp.*RWY 04: 4.0 kt HW 0.3 kt RCW
RWY 35: 2.3 kt HW 3.3 kt RCW
RWY 13: 0.3 kt HW 4 kt LCW
W.Rank040° ranks 4
Current wind is below 040° avg. (5.8)
Visibility9999 m
Phenomena:N/A
Clouds:N/A
Expected CloudBase > 400 ft AGL from Temp-Dew spread
CeilingNone
Temp22°C (ISA +7)
Dew Point21°C (94% RH)
QNH1020 hPa
Density Alt1,158 ft
Elevation203 ft
Report Wrong Elevation
Raw Report
METAR KVLD 211153Z 04004KT 10SM CLR 22/21 A3012 RMK AO2 SLP207 T02170211
10233 20206 51011=

Extra information for KVLD:More info

Metar Taf Metar & Taf Last 4 Metars F.Rules Stats Wind Profile Meteogram Temp Stats Airport Information Weather charts Add Link Nearby VenuesMetar ALERT Operation Metar Decoded Social comments

AIRNAV info for KVLD
True Flight Aerospace